Time;durP1;ratioP1;P1;durP2;ratioP2;P2;SDS_P1;SDS_P2;PMS_P1;PMS_P2;Temp;Humidity;BMP_temperature;BMP_pressure;BME280_temperature;BME280_humidity;BME280_pressure;Samples;Min_cycle;Max_cycle;Signal;HPM_P1;HPM_P2
2024/01/27 00:01:22;;;;;;;2.58;2.47;;;;;;;-0.23;100.00;101122.44;4874016;29;20041;-72
2024/01/27 00:03:48;;;;;;;9.23;8.32;;;;;;;-0.30;100.00;101135.81;4874298;29;20029;-72
2024/01/27 00:06:13;;;;;;;2.67;2.47;;;;;;;-0.26;100.00;101127.41;4873228;29;20037;-71
2024/01/27 00:08:39;;;;;;;10.05;9.52;;;;;;;-0.40;100.00;101118.03;4874067;29;20124;-70
2024/01/27 00:11:05;;;;;;;2.35;2.25;;;;;;;-0.81;100.00;101026.44;4874391;29;20504;-70
2024/01/27 00:13:30;;;;;;;1.58;1.48;;;;;;;-0.30;100.00;101126.38;4873340;29;20055;-70
2024/01/27 00:15:55;;;;;;;1.98;1.85;;;;;;;-0.38;100.00;101114.72;4873818;29;20055;-70
2024/01/27 00:18:21;;;;;;;1.75;1.65;;;;;;;-0.18;100.00;101127.84;4871121;29;20045;-71
2024/01/27 00:20:46;;;;;;;1.52;1.42;;;;;;;-0.25;100.00;101122.34;4873127;29;20060;-71
2024/01/27 00:23:12;;;;;;;7.93;7.43;;;;;;;-0.29;100.00;101124.66;4873819;29;20060;-71
2024/01/27 00:25:37;;;;;;;11.48;10.50;;;;;;;-0.56;100.00;101062.16;4874052;29;20052;-71
2024/01/27 00:28:03;;;;;;;0.85;0.85;;;;;;;-0.65;100.00;101119.25;4878670;29;20044;-70
2024/01/27 00:30:29;;;;;;;9.60;8.85;;;;;;;-0.48;100.00;101095.28;4874313;29;20591;-72
2024/01/27 00:32:54;;;;;;;5.15;4.68;;;;;;;-0.28;100.00;101101.56;4873269;29;20049;-70
2024/01/27 00:35:20;;;;;;;3.60;3.40;;;;;;;-0.11;100.00;101115.38;4873670;29;20350;-69
2024/01/27 00:37:46;;;;;;;5.80;5.47;;;;;;;-0.65;100.00;101008.44;4873608;29;20512;-71
2024/01/27 00:40:12;;;;;;;44.13;16.38;;;;;;;-0.23;100.00;101087.22;4872247;29;20073;-71
2024/01/27 00:42:38;;;;;;;3.40;2.38;;;;;;;-0.23;100.00;101050.25;4870989;29;20037;-70
2024/01/27 00:45:07;;;;;;;3.50;3.25;;;;;;;-0.21;100.00;101053.78;4866390;29;20045;-71
2024/01/27 00:47:32;;;;;;;1.45;1.35;;;;;;;-0.62;100.00;100975.09;4867276;29;20057;-71
2024/01/27 00:49:58;;;;;;;5.18;4.88;;;;;;;-0.14;100.00;101062.72;4872016;29;20052;-70
2024/01/27 00:52:23;;;;;;;6.05;5.75;;;;;;;-0.15;100.00;101081.59;4866130;29;20152;-71
2024/01/27 00:54:49;;;;;;;6.68;6.10;;;;;;;-0.19;100.00;101044.41;4813852;29;1186930;-71
2024/01/27 00:57:15;;;;;;;8.05;7.57;;;;;;;-0.58;100.00;100995.09;4856792;29;20037;-71
2024/01/27 00:59:41;;;;;;;7.72;7.30;;;;;;;-0.26;100.00;101065.53;4855436;29;20056;-70
2024/01/27 01:02:07;;;;;;;20.92;17.20;;;;;;;-0.73;100.00;100971.03;4851982;29;20053;-71
2024/01/27 01:04:33;;;;;;;8.30;7.80;;;;;;;-0.62;100.00;100977.69;4855393;29;20498;-71
2024/01/27 01:06:59;;;;;;;0.70;0.65;;;;;;;-0.65;100.00;100964.63;4855375;29;20045;-71
2024/01/27 01:09:24;;;;;;;13.27;12.48;;;;;;;-0.05;100.00;101043.47;4857192;29;20109;-71
2024/01/27 01:11:50;;;;;;;4.18;3.97;;;;;;;0.04;100.00;101073.13;4855563;29;20097;-70
2024/01/27 01:14:16;;;;;;;11.00;10.20;;;;;;;0.05;100.00;101060.31;4855754;29;20045;-71
2024/01/27 01:16:41;;;;;;;14.10;6.60;;;;;;;-0.27;100.00;101013.06;4852837;29;20512;-72
2024/01/27 01:19:07;;;;;;;11.82;10.38;;;;;;;-0.51;100.00;100955.94;4855646;29;20053;-70
2024/01/27 01:21:33;;;;;;;5.35;5.03;;;;;;;0.17;100.00;101065.25;4855757;29;20039;-71
2024/01/27 01:23:58;;;;;;;30.83;20.25;;;;;;;0.05;100.00;101064.56;4855131;29;20046;-71
2024/01/27 01:26:26;;;;;;;1.45;1.35;;;;;;;-0.74;100.00;100970.16;4855383;29;20077;-70
2024/01/27 01:28:52;;;;;;;1.35;1.35;;;;;;;-0.43;100.00;100966.66;4856567;29;20076;-70
2024/01/27 01:31:18;;;;;;;6.75;6.22;;;;;;;-0.79;100.00;100974.19;4855292;29;20490;-71
2024/01/27 01:33:44;;;;;;;1.50;1.40;;;;;;;-0.43;100.00;100949.50;4855418;29;20045;-71
2024/01/27 01:36:10;;;;;;;2.80;2.42;;;;;;;0.21;100.00;101051.66;4855045;29;20037;-71
2024/01/27 01:38:35;;;;;;;5.47;2.95;;;;;;;0.34;100.00;101048.03;4855286;29;20693;-70
2024/01/27 01:41:01;;;;;;;0.60;0.60;;;;;;;-0.11;100.00;100952.00;4869178;29;20046;-70
2024/01/27 01:43:27;;;;;;;6.82;6.40;;;;;;;-0.30;100.00;100953.63;4855482;29;20053;-71
2024/01/27 01:45:55;;;;;;;0.50;0.50;;;;;;;-0.16;100.00;100935.41;4855086;29;20022;-70
2024/01/27 01:48:21;;;;;;;4.43;4.18;;;;;;;0.49;100.00;101041.09;4838468;29;20124;-71
2024/01/27 01:50:48;;;;;;;1.77;1.67;;;;;;;0.05;100.00;100980.34;4854605;29;20429;-70
2024/01/27 01:53:13;;;;;;;0.40;0.40;;;;;;;-0.39;100.00;100958.28;4858910;29;20053;-70
2024/01/27 01:55:40;;;;;;;0.93;0.50;;;;;;;0.35;100.00;101036.91;4863161;29;20049;-70
2024/01/27 01:58:06;;;;;;;4.50;4.30;;;;;;;-0.03;100.00;100961.88;4872541;29;20048;-70
2024/01/27 02:00:32;;;;;;;6.53;6.22;;;;;;;-0.22;100.00;100959.16;4873516;29;20033;-70
2024/01/27 02:02:58;;;;;;;0.75;0.75;;;;;;;0.37;100.00;101037.88;4871686;29;20053;-71
2024/01/27 02:05:24;;;;;;;9.25;6.72;;;;;;;0.24;100.00;101007.09;4871074;29;20051;-70
2024/01/27 02:07:50;;;;;;;2.95;2.85;;;;;;;-0.49;100.00;100914.81;4876897;29;20041;-71
2024/01/27 02:10:17;;;;;;;0.68;0.68;;;;;;;-0.06;100.00;100941.09;4874473;29;20086;-72
2024/01/27 02:12:44;;;;;;;0.57;0.57;;;;;;;0.39;100.00;101031.97;4877622;29;20032;-70
2024/01/27 02:15:13;;;;;;;1.27;1.17;;;;;;;-0.01;100.00;100931.00;4876938;29;20048;-71
2024/01/27 02:17:39;;;;;;;4.35;4.13;;;;;;;0.41;100.00;101001.09;4878316;29;20065;-71
2024/01/27 02:20:08;;;;;;;23.23;17.92;;;;;;;0.59;100.00;101037.28;4880593;29;20051;-71
2024/01/27 02:22:34;;;;;;;10.10;9.60;;;;;;;0.55;100.00;101035.34;4860186;29;20053;-70
2024/01/27 02:25:01;;;;;;;11.43;10.68;;;;;;;0.38;100.00;101013.84;4877083;29;20052;-71
2024/01/27 02:27:26;;;;;;;3.30;3.10;;;;;;;-0.10;100.00;100946.91;4879067;29;20033;-70
2024/01/27 02:29:52;;;;;;;8.30;7.82;;;;;;;-0.08;100.00;100942.72;4876483;29;20044;-70
2024/01/27 02:32:17;;;;;;;3.13;2.97;;;;;;;0.14;100.00;100961.84;4879280;29;20037;-70
2024/01/27 02:34:43;;;;;;;5.47;5.18;;;;;;;-0.02;100.00;100939.56;4891973;29;20047;-70
2024/01/27 02:37:09;;;;;;;6.30;5.63;;;;;;;-0.12;100.00;100940.75;4874792;29;20057;-70
2024/01/27 02:39:35;;;;;;;3.38;3.13;;;;;;;-0.25;100.00;100938.38;4874698;29;20036;-70
2024/01/27 02:42:00;;;;;;;3.35;3.15;;;;;;;0.16;100.00;100998.94;4872999;29;20076;-70
2024/01/27 02:44:26;;;;;;;6.57;6.28;;;;;;;0.03;100.00;100992.28;4872828;29;20110;-70
2024/01/27 02:46:52;;;;;;;1.05;1.05;;;;;;;0.23;100.00;101008.78;4886150;29;20670;-70
2024/01/27 02:49:17;;;;;;;14.77;13.52;;;;;;;0.00;100.00;100930.22;4872653;29;20056;-70
2024/01/27 02:51:43;;;;;;;0.93;0.93;;;;;;;0.44;100.00;101000.34;4868174;29;20041;-71
2024/01/27 02:54:09;;;;;;;1.50;1.40;;;;;;;0.41;100.00;101006.25;4873196;29;20045;-70
2024/01/27 02:56:35;;;;;;;5.90;5.47;;;;;;;-0.26;100.00;100903.06;4871567;29;20045;-69
2024/01/27 02:59:00;;;;;;;2.55;2.42;;;;;;;0.25;100.00;100993.38;4855509;29;20127;-70
2024/01/27 03:01:26;;;;;;;0.30;0.30;;;;;;;0.37;100.00;101000.03;4869135;29;20105;-69
2024/01/27 03:03:51;;;;;;;5.15;4.88;;;;;;;0.27;100.00;100989.19;4872036;29;20029;-70
2024/01/27 03:06:17;;;;;;;3.42;3.30;;;;;;;0.36;100.00;100985.38;4873364;29;20660;-69
2024/01/27 03:08:42;;;;;;;4.47;2.05;;;;;;;0.36;100.00;100987.06;4871829;29;20053;-70
2024/01/27 03:11:08;;;;;;;4.18;3.90;;;;;;;-0.14;100.00;100908.88;4871529;29;20064;-70
2024/01/27 03:13:33;;;;;;;1.25;1.15;;;;;;;0.23;100.00;100967.47;4863704;29;20100;-69
2024/01/27 03:15:59;;;;;;;2.60;2.45;;;;;;;-0.01;100.00;100959.38;4854788;29;20045;-70
2024/01/27 03:18:25;;;;;;;1.33;1.23;;;;;;;-0.48;100.00;100876.19;4867538;29;20045;-71
2024/01/27 03:20:50;;;;;;;9.55;8.82;;;;;;;0.12;100.00;100960.91;4871491;29;20103;-71
2024/01/27 03:23:16;;;;;;;2.13;2.03;;;;;;;-0.29;100.00;100957.06;4874667;29;20049;-70
2024/01/27 03:25:41;;;;;;;0.77;0.77;;;;;;;-0.07;100.00;100949.66;4872449;29;20053;-70
2024/01/27 03:28:07;;;;;;;0.82;0.82;;;;;;;-0.05;100.00;100931.66;4872216;29;20076;-70
2024/01/27 03:30:32;;;;;;;2.72;2.63;;;;;;;-0.05;100.00;100937.72;4872458;29;20150;-71
2024/01/27 03:32:58;;;;;;;5.75;5.43;;;;;;;-0.03;100.00;100935.19;4871976;29;20577;-70
2024/01/27 03:35:24;;;;;;;5.57;4.60;;;;;;;-0.40;100.00;100881.75;4871720;29;20061;-71
2024/01/27 03:37:49;;;;;;;2.28;2.17;;;;;;;-0.13;100.00;100894.28;4868657;29;20045;-71
2024/01/27 03:40:15;;;;;;;0.70;0.65;;;;;;;-0.06;100.00;100912.72;4870387;29;20677;-70
2024/01/27 03:42:40;;;;;;;2.00;1.90;;;;;;;-0.46;100.00;100835.91;4872171;29;20401;-70
2024/01/27 03:45:06;;;;;;;6.20;5.88;;;;;;;0.10;100.00;100937.59;4869610;29;20772;-72
2024/01/27 03:47:31;;;;;;;0.50;0.50;;;;;;;0.12;100.00;100933.41;4871598;29;20079;-71
2024/01/27 03:49:57;;;;;;;0.70;0.70;;;;;;;0.04;100.00;100908.91;4866369;29;20049;-70
2024/01/27 03:52:22;;;;;;;9.43;8.70;;;;;;;-0.02;100.00;100931.84;4871822;29;20144;-71
2024/01/27 03:54:48;;;;;;;1.55;1.45;;;;;;;-0.88;100.00;100824.28;4868674;29;20097;-71
2024/01/27 03:57:13;;;;;;;4.55;4.10;;;;;;;-0.52;100.00;100827.88;4870944;29;20040;-71
2024/01/27 03:59:42;;;;;;;3.95;3.75;;;;;;;-0.48;100.00;100811.75;4872648;29;20120;-71
2024/01/27 04:02:07;;;;;;;8.40;7.78;;;;;;;-0.08;100.00;100878.22;4868828;29;20068;-70
2024/01/27 04:04:33;;;;;;;6.03;1.83;;;;;;;-0.35;100.00;100807.22;4870148;29;20037;-71
2024/01/27 04:06:58;;;;;;;1.27;1.25;;;;;;;-0.44;100.00;100793.06;4871956;29;20420;-70
2024/01/27 04:09:24;;;;;;;0.90;0.88;;;;;;;0.06;100.00;100885.78;4872379;29;20033;-70
2024/01/27 04:11:49;;;;;;;9.32;8.68;;;;;;;-0.49;100.00;100865.81;4871685;29;20052;-70
2024/01/27 04:14:15;;;;;;;8.68;6.32;;;;;;;-0.38;100.00;100885.28;4881261;29;20453;-70
2024/01/27 04:16:41;;;;;;;3.67;3.50;;;;;;;-0.07;100.00;100887.75;4869738;29;20060;-70
2024/01/27 04:19:06;;;;;;;15.80;14.90;;;;;;;-0.01;100.00;100856.22;4869301;29;20053;-71
2024/01/27 04:21:32;;;;;;;4.78;4.47;;;;;;;0.11;100.00;100876.56;4875281;29;20033;-70
2024/01/27 04:23:57;;;;;;;2.28;2.17;;;;;;;-0.37;100.00;100791.69;4872070;29;20854;-70
2024/01/27 04:26:23;;;;;;;10.63;9.77;;;;;;;-0.62;100.00;100775.78;4876490;29;20417;-69
2024/01/27 04:28:48;;;;;;;3.03;2.88;;;;;;;-0.16;100.00;100851.19;4875298;29;20064;-70
2024/01/27 04:31:14;;;;;;;5.63;5.35;;;;;;;-0.07;100.00;100845.56;4874851;29;20128;-70
2024/01/27 04:33:40;;;;;;;3.03;2.92;;;;;;;0.10;100.00;100864.50;4875140;29;20029;-70
2024/01/27 04:36:06;;;;;;;0.60;0.60;;;;;;;0.21;100.00;100876.19;4875544;29;20445;-70
2024/01/27 04:38:32;;;;;;;2.00;1.90;;;;;;;0.28;100.00;100874.81;4869891;29;20045;-70
2024/01/27 04:40:58;;;;;;;9.73;8.90;;;;;;;-0.11;100.00;100795.56;4869934;29;20494;-70
2024/01/27 04:43:23;;;;;;;9.82;9.25;;;;;;;-0.17;100.00;100778.88;4871641;29;20148;-70
2024/01/27 04:45:49;;;;;;;1.55;1.48;;;;;;;0.28;100.00;100875.72;4871897;29;20037;-70
2024/01/27 04:48:15;;;;;;;2.70;2.50;;;;;;;-0.19;100.00;100790.81;4866308;29;20069;-71
2024/01/27 04:50:41;;;;;;;1.88;1.77;;;;;;;-0.37;100.00;100799.41;4870177;29;20049;-70
2024/01/27 04:53:06;;;;;;;7.15;6.55;;;;;;;0.31;100.00;100881.03;4869534;29;20045;-72
2024/01/27 04:55:32;;;;;;;1.73;1.63;;;;;;;-0.10;100.00;100791.28;4876371;29;20053;-70
2024/01/27 04:57:58;;;;;;;2.63;2.42;;;;;;;0.36;100.00;100856.31;4866213;29;20105;-71
2024/01/27 05:00:26;;;;;;;1.35;1.25;;;;;;;0.46;100.00;100880.00;4870232;29;20874;-70
2024/01/27 05:02:52;;;;;;;1.98;1.88;;;;;;;0.02;100.00;100817.66;4871040;29;20089;-71
2024/01/27 05:05:18;;;;;;;2.97;2.78;;;;;;;-0.14;100.00;100804.81;4874355;29;20099;-69
2024/01/27 05:07:44;;;;;;;11.52;10.45;;;;;;;-0.12;100.00;100806.66;4874299;29;20504;-69
2024/01/27 05:10:13;;;;;;;18.88;13.25;;;;;;;0.54;100.00;100891.56;4874396;29;20049;-70
2024/01/27 05:12:38;;;;;;;2.92;2.78;;;;;;;0.59;100.00;100909.06;4873488;29;20040;-72
2024/01/27 05:15:04;;;;;;;2.35;2.25;;;;;;;0.14;100.00;100854.41;4874713;29;20037;-70
2024/01/27 05:17:30;;;;;;;2.38;2.17;;;;;;;-0.06;100.00;100812.13;4876181;29;20045;-70
2024/01/27 05:19:58;;;;;;;1.17;1.17;;;;;;;-0.25;100.00;100805.19;4873873;29;20523;-70
2024/01/27 05:22:23;;;;;;;5.65;5.35;;;;;;;0.33;100.00;100900.03;4858557;29;20067;-71
2024/01/27 05:24:49;;;;;;;0.93;0.93;;;;;;;-0.37;100.00;100777.91;4874146;29;20037;-71
2024/01/27 05:27:14;;;;;;;0.68;0.68;;;;;;;-0.14;100.00;100803.16;4857323;29;20132;-71
2024/01/27 05:29:40;;;;;;;6.70;6.30;;;;;;;0.24;100.00;100881.53;4873939;29;20132;-71
2024/01/27 05:32:05;;;;;;;0.70;0.70;;;;;;;0.27;100.00;100886.84;4855712;29;20394;-71
2024/01/27 05:34:31;;;;;;;0.70;0.70;;;;;;;-0.13;100.00;100809.19;4873984;29;20056;-70
2024/01/27 05:36:56;;;;;;;0.65;0.65;;;;;;;0.48;100.00;100897.31;4855889;29;20045;-71
2024/01/27 05:39:22;;;;;;;0.55;0.55;;;;;;;0.14;100.00;100849.22;4874355;29;20041;-70
2024/01/27 05:41:48;;;;;;;2.92;2.72;;;;;;;0.33;100.00;100886.25;4873670;29;20068;-70
2024/01/27 05:44:13;;;;;;;0.30;0.30;;;;;;;0.44;100.00;100902.25;4873630;29;20045;-70
2024/01/27 05:46:39;;;;;;;0.55;0.40;;;;;;;-0.55;100.00;100819.09;4869984;29;20058;-70
2024/01/27 05:49:04;;;;;;;2.05;1.95;;;;;;;0.05;100.00;100884.00;4868034;29;20520;-70
2024/01/27 05:51:31;;;;;;;2.08;1.98;;;;;;;-0.23;100.00;100811.31;4868548;29;20061;-70
2024/01/27 05:53:56;;;;;;;2.22;2.13;;;;;;;-0.01;100.00;100866.53;4873069;29;20049;-70
2024/01/27 05:56:22;;;;;;;1.02;1.02;;;;;;;0.37;100.00;100907.09;4869623;29;20064;-70
2024/01/27 05:58:48;;;;;;;0.50;0.50;;;;;;;0.33;100.00;100892.31;4867696;29;20132;-72
2024/01/27 06:01:14;;;;;;;0.40;0.40;;;;;;;0.34;100.00;100904.38;4875961;29;20531;-70
2024/01/27 06:03:43;;;;;;;0.40;0.40;;;;;;;-0.09;100.00;100809.41;4869419;29;20033;-71
2024/01/27 06:06:09;;;;;;;1.95;1.85;;;;;;;0.57;100.00;100905.50;4873722;29;20048;-71
2024/01/27 06:08:35;;;;;;;0.90;0.90;;;;;;;0.11;100.00;100830.13;4873022;29;20041;-71
2024/01/27 06:11:00;;;;;;;10.82;10.20;;;;;;;0.58;100.00;100901.22;4870140;29;20527;-70
2024/01/27 06:13:26;;;;;;;5.43;5.20;;;;;;;0.60;100.00;100895.31;4868681;29;20560;-72
2024/01/27 06:15:51;;;;;;;2.20;2.00;;;;;;;0.55;100.00;100883.88;4874493;29;20053;-72
2024/01/27 06:18:17;;;;;;;4.43;4.22;;;;;;;0.66;100.00;100893.88;4868550;29;20037;-70
2024/01/27 06:20:44;;;;;;;5.82;5.35;;;;;;;0.73;100.00;100880.44;4866041;29;20412;-70
2024/01/27 06:23:09;;;;;;;2.38;2.28;;;;;;;0.38;100.00;100808.22;4873193;29;20044;-70
2024/01/27 06:25:35;;;;;;;0.45;0.45;;;;;;;0.48;100.00;100883.53;4872293;29;20040;-70
2024/01/27 06:28:00;;;;;;;1.05;1.05;;;;;;;0.12;100.00;100819.91;4869400;29;20048;-70
2024/01/27 06:30:26;;;;;;;0.90;0.90;;;;;;;0.20;100.00;100804.78;4868186;29;20428;-71
2024/01/27 06:32:52;;;;;;;1.67;1.58;;;;;;;0.12;100.00;100788.94;4872805;29;20053;-70
2024/01/27 06:35:17;;;;;;;0.40;0.40;;;;;;;0.23;100.00;100771.38;4872419;29;20049;-71
2024/01/27 06:37:43;;;;;;;4.90;4.68;;;;;;;0.71;100.00;100875.19;4872639;29;20079;-70
2024/01/27 06:40:09;;;;;;;0.70;0.70;;;;;;;0.86;100.00;100882.75;4872274;29;20065;-71
2024/01/27 06:42:35;;;;;;;0.70;0.70;;;;;;;0.86;100.00;100872.41;4879729;29;20943;-71
2024/01/27 06:45:00;;;;;;;6.78;6.32;;;;;;;0.95;100.00;100883.19;4872458;29;20083;-72
2024/01/27 06:47:27;;;;;;;4.10;3.83;;;;;;;0.38;100.00;100786.72;4872125;29;20079;-72
2024/01/27 06:49:53;;;;;;;8.55;5.60;;;;;;;0.57;100.00;100802.22;4872289;29;20513;-71
2024/01/27 06:52:18;;;;;;;3.72;3.53;;;;;;;1.11;100.00;100889.94;4872578;29;20073;-71
2024/01/27 06:54:44;;;;;;;18.33;16.55;;;;;;;0.60;100.00;100799.78;4871386;29;20049;-70
2024/01/27 06:57:22;;;;;;;1.67;1.58;;;;;;;1.08;100.00;100865.66;4873272;29;20067;-69
2024/01/27 06:59:52;;;;;;;0.50;0.50;;;;;;;1.10;100.00;100872.69;4865983;29;20045;-72
2024/01/27 07:02:28;;;;;;;5.38;4.85;;;;;;;0.93;100.00;100840.00;4871662;29;20079;-70
2024/01/27 07:04:55;;;;;;;0.77;0.77;;;;;;;1.27;100.00;100881.19;4871465;29;20045;-70
2024/01/27 07:07:25;;;;;;;1.95;1.85;;;;;;;0.68;100.00;100776.91;4870082;29;20049;-71
2024/01/27 07:09:51;;;;;;;0.52;0.52;;;;;;;1.13;100.00;100846.97;4871217;29;20033;-72
2024/01/27 07:12:16;;;;;;;0.60;0.60;;;;;;;0.66;100.00;100812.09;4872743;29;20033;-70
2024/01/27 07:14:42;;;;;;;3.75;0.68;;;;;;;0.84;100.00;100879.22;4872213;29;20064;-69
2024/01/27 07:17:07;;;;;;;10.02;9.50;;;;;;;1.14;100.00;100873.69;4887071;29;20787;-72
2024/01/27 07:19:33;;;;;;;3.92;3.72;;;;;;;1.21;100.00;100874.03;4869852;29;20057;-70
2024/01/27 07:21:59;;;;;;;1.27;1.27;;;;;;;1.23;100.00;100871.53;4871671;29;20083;-71
2024/01/27 07:24:26;;;;;;;1.42;1.35;;;;;;;1.31;100.00;100890.84;4872848;29;20032;-71
2024/01/27 07:26:53;;;;;;;0.40;0.40;;;;;;;1.02;100.00;100885.22;4870450;29;20041;-72
2024/01/27 07:29:20;;;;;;;1.70;1.60;;;;;;;0.55;100.00;100841.69;4868412;29;20044;-70
2024/01/27 07:31:45;;;;;;;2.15;2.05;;;;;;;0.25;100.00;100812.72;4867560;29;20051;-71
2024/01/27 07:34:10;;;;;;;0.65;0.65;;;;;;;0.67;100.00;100880.13;4850901;29;20057;-72
2024/01/27 07:36:36;;;;;;;2.15;2.05;;;;;;;1.15;100.00;100924.59;4870432;29;20064;-71
2024/01/27 07:39:02;;;;;;;5.93;5.63;;;;;;;1.39;100.00;100923.09;4863671;29;20370;-72
2024/01/27 07:41:27;;;;;;;0.65;0.65;;;;;;;1.35;100.00;100918.59;4865282;29;20091;-70
2024/01/27 07:43:54;;;;;;;1.40;1.40;;;;;;;1.40;100.00;100903.28;4870878;29;20049;-70
2024/01/27 07:46:22;;;;;;;1.45;1.35;;;;;;;1.59;100.00;100915.34;4862668;29;20209;-72
2024/01/27 07:48:48;;;;;;;1.13;1.13;;;;;;;1.47;100.00;100914.00;4865925;29;20025;-71
2024/01/27 07:51:15;;;;;;;0.63;0.63;;;;;;;1.60;100.00;100914.53;4868580;29;20044;-71
2024/01/27 07:53:41;;;;;;;4.97;4.75;;;;;;;1.18;100.00;100831.66;4863122;29;20093;-72
2024/01/27 07:56:07;;;;;;;2.97;2.78;;;;;;;1.61;100.00;100903.38;4868649;29;20088;-70
2024/01/27 07:58:33;;;;;;;0.60;0.60;;;;;;;1.68;100.00;100908.88;4872169;29;20049;-70
2024/01/27 08:00:59;;;;;;;1.15;1.05;;;;;;;1.27;100.00;100829.50;4870713;29;20041;-72
2024/01/27 08:03:24;;;;;;;0.57;0.50;;;;;;;1.87;100.00;100909.66;4873439;29;20408;-72
2024/01/27 08:05:50;;;;;;;1.40;1.33;;;;;;;1.77;100.00;100885.09;4874318;29;20469;-70
2024/01/27 08:08:15;;;;;;;1.17;1.13;;;;;;;1.95;100.00;100905.72;4872389;29;20041;-69
2024/01/27 08:10:41;;;;;;;0.60;0.60;;;;;;;1.50;100.00;100817.56;4872842;29;20156;-71
2024/01/27 08:13:07;;;;;;;0.40;0.40;;;;;;;1.48;100.00;100811.44;4871651;29;20094;-71
2024/01/27 08:15:33;;;;;;;1.42;1.35;;;;;;;2.00;100.00;100905.91;4875382;29;20037;-70
2024/01/27 08:17:58;;;;;;;0.73;0.73;;;;;;;1.57;100.00;100822.19;4866611;29;20556;-70
2024/01/27 08:20:24;;;;;;;3.28;3.15;;;;;;;2.08;100.00;100907.09;4889045;29;20511;-72
2024/01/27 08:22:52;;;;;;;0.30;0.30;;;;;;;1.62;100.00;100822.38;4874952;29;20548;-71
2024/01/27 08:25:18;;;;;;;0.40;0.40;;;;;;;2.05;100.00;100923.41;4869439;29;20135;-70
2024/01/27 08:27:44;;;;;;;4.07;3.88;;;;;;;1.67;100.00;100838.97;4880901;29;20540;-71
2024/01/27 08:30:10;;;;;;;6.53;6.15;;;;;;;2.05;100.00;100888.88;4858941;29;20033;-71
2024/01/27 08:32:36;;;;;;;0.50;0.50;;;;;;;1.65;100.00;100813.03;4879907;29;20052;-70
2024/01/27 08:35:01;;;;;;;1.42;1.02;;;;;;;1.76;100.00;100836.78;4874319;29;20048;-72
2024/01/27 08:37:27;;;;;;;1.52;1.42;;;;;;;2.18;100.00;100922.22;4874908;29;20053;-70
2024/01/27 08:39:53;;;;;;;1.45;1.38;;;;;;;2.30;100.00;100922.72;4856681;29;20036;-71
2024/01/27 08:42:18;;;;;;;2.50;2.40;;;;;;;1.83;100.00;100833.63;4875695;29;20029;-71
2024/01/27 08:44:44;;;;;;;0.40;0.32;;;;;;;2.18;100.00;100906.69;4874272;29;20132;-70
2024/01/27 08:47:10;;;;;;;0.88;0.88;;;;;;;1.58;100.00;100846.34;4874421;29;20056;-71
2024/01/27 08:49:35;;;;;;;3.90;3.70;;;;;;;1.60;100.00;100821.44;4873730;29;20157;-71
2024/01/27 08:52:01;;;;;;;1.92;1.83;;;;;;;2.09;100.00;100916.66;4874421;29;20553;-70
2024/01/27 08:54:26;;;;;;;2.95;2.80;;;;;;;2.22;100.00;100946.53;4874831;29;20060;-70
2024/01/27 08:56:52;;;;;;;0.75;0.75;;;;;;;1.94;100.00;100919.47;4873543;29;20056;-70
2024/01/27 08:59:17;;;;;;;4.47;3.28;;;;;;;2.08;100.00;100939.06;4877428;29;20052;-72
2024/01/27 09:01:43;;;;;;;0.55;0.55;;;;;;;2.26;100.00;100932.91;4873922;29;20537;-71
2024/01/27 09:04:09;;;;;;;1.30;1.20;;;;;;;1.78;100.00;100871.38;4873962;29;20702;-71
2024/01/27 09:06:34;;;;;;;1.95;1.85;;;;;;;1.83;100.00;100838.81;4856963;29;20085;-70
2024/01/27 09:09:00;;;;;;;1.98;1.55;;;;;;;2.02;100.00;100881.00;4873650;29;20049;-71
2024/01/27 09:11:29;;;;;;;0.50;0.50;;;;;;;2.46;100.00;100952.75;4872972;29;20777;-71
2024/01/27 09:13:55;;;;;;;2.03;1.92;;;;;;;2.44;100.00;100961.28;4873694;29;20053;-70
2024/01/27 09:16:21;;;;;;;0.60;0.60;;;;;;;2.39;100.00;100971.44;4872100;29;20144;-70
2024/01/27 09:18:47;;;;;;;0.60;0.60;;;;;;;1.73;100.00;100883.19;4873230;29;20466;-70
2024/01/27 09:21:14;;;;;;;0.63;0.63;;;;;;;2.11;100.00;100891.72;4874302;29;20055;-71
2024/01/27 09:23:39;;;;;;;2.63;2.53;;;;;;;2.38;100.00;100909.22;4873842;29;20091;-70
2024/01/27 09:26:05;;;;;;;1.65;1.55;;;;;;;2.14;100.00;100893.56;4873880;29;20076;-70
2024/01/27 09:28:30;;;;;;;1.00;0.98;;;;;;;2.51;100.00;100955.53;4873866;29;20045;-71
2024/01/27 09:30:56;;;;;;;1.02;1.02;;;;;;;2.61;100.00;100946.41;4873176;29;20310;-71
2024/01/27 09:33:23;;;;;;;0.90;0.90;;;;;;;1.26;100.00;100863.91;4857007;29;20029;-69
2024/01/27 09:35:49;;;;;;;0.63;0.63;;;;;;;1.85;100.00;100938.09;4872828;29;20037;-71
2024/01/27 09:38:15;;;;;;;1.98;1.88;;;;;;;2.04;100.00;100942.34;4887375;29;20068;-70
2024/01/27 09:40:41;;;;;;;3.08;2.97;;;;;;;2.41;100.00;100938.72;4873787;29;20072;-70
2024/01/27 09:43:12;;;;;;;0.70;0.70;;;;;;;2.42;100.00;100908.53;4873908;29;20132;-71
2024/01/27 09:45:39;;;;;;;8.48;7.75;;;;;;;2.38;100.00;100917.84;4873765;29;20138;-71
2024/01/27 09:48:07;;;;;;;3.05;2.90;;;;;;;2.29;100.00;100920.97;4873090;29;20048;-70
2024/01/27 09:50:34;;;;;;;0.98;0.95;;;;;;;1.12;100.00;100871.03;4876146;29;20192;-71
2024/01/27 09:53:00;;;;;;;1.00;1.00;;;;;;;1.35;100.00;100845.34;4873169;29;20052;-70
2024/01/27 09:55:26;;;;;;;0.57;0.57;;;;;;;1.07;100.00;100861.31;4872952;29;20513;-71
2024/01/27 09:57:52;;;;;;;3.42;3.28;;;;;;;1.58;100.00;100934.28;4856052;29;20061;-70
2024/01/27 10:00:19;;;;;;;0.45;0.45;;;;;;;1.23;100.00;100848.25;4873458;29;20050;-70
2024/01/27 10:02:49;;;;;;;6.93;6.50;;;;;;;1.86;100.00;100934.66;4872774;29;20532;-72
2024/01/27 10:05:15;;;;;;;3.38;3.17;;;;;;;1.40;100.00;100836.06;4872728;29;20045;-71
2024/01/27 10:07:41;;;;;;;8.18;7.47;;;;;;;1.64;100.00;100937.16;4873062;29;20048;-73
2024/01/27 10:10:07;;;;;;;1.65;1.38;;;;;;;1.95;100.00;100928.13;4872882;29;20113;-70
2024/01/27 10:12:38;;;;;;;2.33;2.22;;;;;;;2.12;100.00;100924.53;4873458;29;20037;-72
2024/01/27 10:15:04;;;;;;;1.60;1.50;;;;;;;1.97;100.00;100888.56;4872686;29;20506;-70
2024/01/27 10:17:35;;;;;;;0.60;0.60;;;;;;;1.91;100.00;100903.81;4870448;29;20041;-71
2024/01/27 10:20:07;;;;;;;3.95;3.72;;;;;;;1.26;100.00;100856.13;4857977;29;20048;-72
2024/01/27 10:22:40;;;;;;;3.05;2.95;;;;;;;1.65;100.00;100941.47;4872868;29;20044;-71
2024/01/27 10:25:07;;;;;;;5.18;4.95;;;;;;;2.37;100.00;100954.94;4872586;29;20083;-71
2024/01/27 10:27:33;;;;;;;7.55;7.10;;;;;;;1.69;100.00;100848.56;4873201;29;20040;-70
2024/01/27 10:29:58;;;;;;;6.05;5.70;;;;;;;1.99;100.00;100923.16;4872490;29;20053;-70
2024/01/27 10:32:24;;;;;;;5.15;4.90;;;;;;;1.87;100.00;100876.94;4874269;29;20067;-70
2024/01/27 10:35:05;;;;;;;4.03;3.65;;;;;;;1.90;100.00;100882.22;4871894;29;20041;-71
2024/01/27 10:37:31;;;;;;;11.00;10.00;;;;;;;2.51;100.00;100950.34;4866380;29;20052;-70
2024/01/27 10:40:00;;;;;;;4.05;3.83;;;;;;;2.33;100.00;100850.34;4871935;29;20057;-70
2024/01/27 10:42:30;;;;;;;0.82;0.82;;;;;;;2.94;100.00;100944.28;4872974;29;20033;-70
2024/01/27 10:45:02;;;;;;;0.77;0.77;;;;;;;1.98;100.00;100879.97;4872482;29;20041;-71
2024/01/27 10:47:30;;;;;;;6.50;6.13;;;;;;;2.77;100.00;100935.84;4869055;29;20044;-70
2024/01/27 10:49:57;;;;;;;6.22;5.70;;;;;;;3.00;100.00;100921.22;4872036;29;20682;-70
2024/01/27 10:52:28;;;;;;;0.93;0.93;;;;;;;3.48;100.00;100944.63;4872069;29;20455;-70
2024/01/27 10:55:02;;;;;;;1.20;1.10;;;;;;;3.56;100.00;100931.97;4871543;29;20104;-71
2024/01/27 10:57:29;;;;;;;2.88;2.78;;;;;;;3.37;100.00;100925.16;4855687;29;20040;-70
2024/01/27 10:59:57;;;;;;;1.30;1.30;;;;;;;3.40;100.00;100876.03;4855057;29;20041;-70
2024/01/27 11:02:23;;;;;;;12.82;7.15;;;;;;;3.49;100.00;100860.78;4872005;29;20049;-71
2024/01/27 11:04:51;;;;;;;0.57;0.57;;;;;;;3.74;100.00;100911.84;4871608;29;20429;-72
2024/01/27 11:07:20;;;;;;;3.72;3.53;;;;;;;3.84;100.00;100927.72;4874580;29;20056;-72
2024/01/27 11:09:50;;;;;;;1.55;1.45;;;;;;;3.78;100.00;100931.00;4853223;29;20041;-71
2024/01/27 11:12:16;;;;;;;3.28;3.08;;;;;;;3.90;100.00;100928.84;4866919;29;20121;-72
2024/01/27 11:14:42;;;;;;;12.15;9.52;;;;;;;3.80;100.00;100921.56;4864342;29;20048;-70
2024/01/27 11:17:07;;;;;;;0.82;0.82;;;;;;;3.28;100.00;100855.72;4870372;29;20045;-72